sensor_id;sensor_type;location;lat;lon;timestamp;P1;durP1;ratioP1;P2;durP2;ratioP2
16969;SDS011;8601;48.718;8.992;2024-03-02T00:01:29;7.70;;;6.90;;
16969;SDS011;8601;48.718;8.992;2024-03-02T00:03:57;11.07;;;6.80;;
16969;SDS011;8601;48.718;8.992;2024-03-02T00:06:24;6.97;;;6.27;;
16969;SDS011;8601;48.718;8.992;2024-03-02T00:08:51;7.00;;;6.27;;
16969;SDS011;8601;48.718;8.992;2024-03-02T00:11:23;7.90;;;6.90;;
16969;SDS011;8601;48.718;8.992;2024-03-02T00:13:51;8.03;;;7.23;;
16969;SDS011;8601;48.718;8.992;2024-03-02T00:16:20;9.17;;;7.30;;
16969;SDS011;8601;48.718;8.992;2024-03-02T00:18:47;7.63;;;6.93;;
16969;SDS011;8601;48.718;8.992;2024-03-02T00:21:14;9.93;;;6.97;;
16969;SDS011;8601;48.718;8.992;2024-03-02T00:23:43;10.77;;;7.60;;
16969;SDS011;8601;48.718;8.992;2024-03-02T00:26:11;8.53;;;7.27;;
16969;SDS011;8601;48.718;8.992;2024-03-02T00:28:38;8.30;;;7.50;;
16969;SDS011;8601;48.718;8.992;2024-03-02T00:31:06;9.70;;;7.87;;
16969;SDS011;8601;48.718;8.992;2024-03-02T00:33:45;10.60;;;8.23;;
16969;SDS011;8601;48.718;8.992;2024-03-02T00:36:13;9.37;;;8.00;;
16969;SDS011;8601;48.718;8.992;2024-03-02T00:38:44;9.17;;;7.47;;
16969;SDS011;8601;48.718;8.992;2024-03-02T00:41:15;10.73;;;8.20;;
16969;SDS011;8601;48.718;8.992;2024-03-02T00:43:49;10.83;;;8.43;;
16969;SDS011;8601;48.718;8.992;2024-03-02T00:46:26;10.47;;;8.10;;
16969;SDS011;8601;48.718;8.992;2024-03-02T00:48:58;10.27;;;8.90;;
16969;SDS011;8601;48.718;8.992;2024-03-02T00:51:26;9.63;;;8.63;;
16969;SDS011;8601;48.718;8.992;2024-03-02T00:53:57;11.13;;;9.63;;
16969;SDS011;8601;48.718;8.992;2024-03-02T00:56:26;11.80;;;9.63;;
16969;SDS011;8601;48.718;8.992;2024-03-02T00:58:53;12.50;;;9.67;;
16969;SDS011;8601;48.718;8.992;2024-03-02T01:01:20;13.53;;;9.73;;
16969;SDS011;8601;48.718;8.992;2024-03-02T01:03:47;12.77;;;10.37;;
16969;SDS011;8601;48.718;8.992;2024-03-02T01:06:16;13.63;;;10.60;;
16969;SDS011;8601;48.718;8.992;2024-03-02T01:08:43;12.03;;;10.17;;
16969;SDS011;8601;48.718;8.992;2024-03-02T01:11:11;11.87;;;9.87;;
16969;SDS011;8601;48.718;8.992;2024-03-02T01:13:38;11.43;;;10.20;;
16969;SDS011;8601;48.718;8.992;2024-03-02T01:16:05;13.63;;;11.20;;
16969;SDS011;8601;48.718;8.992;2024-03-02T01:18:32;12.83;;;10.37;;
16969;SDS011;8601;48.718;8.992;2024-03-02T01:20:58;13.37;;;10.57;;
16969;SDS011;8601;48.718;8.992;2024-03-02T01:23:27;13.70;;;9.90;;
16969;SDS011;8601;48.718;8.992;2024-03-02T01:25:54;14.73;;;11.20;;
16969;SDS011;8601;48.718;8.992;2024-03-02T01:28:22;13.83;;;11.27;;
16969;SDS011;8601;48.718;8.992;2024-03-02T01:30:50;10.53;;;8.60;;
16969;SDS011;8601;48.718;8.992;2024-03-02T01:33:17;13.73;;;11.13;;
16969;SDS011;8601;48.718;8.992;2024-03-02T01:35:45;13.83;;;11.37;;
16969;SDS011;8601;48.718;8.992;2024-03-02T01:38:12;14.50;;;11.37;;
16969;SDS011;8601;48.718;8.992;2024-03-02T01:40:40;14.43;;;11.43;;
16969;SDS011;8601;48.718;8.992;2024-03-02T01:43:09;14.97;;;11.97;;
16969;SDS011;8601;48.718;8.992;2024-03-02T01:45:37;13.40;;;10.60;;
16969;SDS011;8601;48.718;8.992;2024-03-02T01:48:05;13.70;;;10.60;;
16969;SDS011;8601;48.718;8.992;2024-03-02T01:50:33;14.10;;;11.30;;
16969;SDS011;8601;48.718;8.992;2024-03-02T01:53:00;13.57;;;11.60;;
16969;SDS011;8601;48.718;8.992;2024-03-02T01:55:27;14.57;;;11.63;;
16969;SDS011;8601;48.718;8.992;2024-03-02T01:57:57;13.50;;;11.10;;
16969;SDS011;8601;48.718;8.992;2024-03-02T02:00:24;13.80;;;11.10;;
16969;SDS011;8601;48.718;8.992;2024-03-02T02:02:51;15.43;;;11.87;;
16969;SDS011;8601;48.718;8.992;2024-03-02T02:05:20;14.43;;;11.03;;
16969;SDS011;8601;48.718;8.992;2024-03-02T02:07:47;12.63;;;10.77;;
16969;SDS011;8601;48.718;8.992;2024-03-02T02:10:21;15.13;;;12.00;;
16969;SDS011;8601;48.718;8.992;2024-03-02T02:13:03;13.23;;;11.37;;
16969;SDS011;8601;48.718;8.992;2024-03-02T02:15:30;14.83;;;11.67;;
16969;SDS011;8601;48.718;8.992;2024-03-02T02:18:00;13.60;;;11.87;;
16969;SDS011;8601;48.718;8.992;2024-03-02T02:20:28;16.90;;;11.23;;
16969;SDS011;8601;48.718;8.992;2024-03-02T02:22:57;14.33;;;11.33;;
16969;SDS011;8601;48.718;8.992;2024-03-02T02:25:24;13.40;;;11.17;;
16969;SDS011;8601;48.718;8.992;2024-03-02T02:27:52;14.90;;;11.57;;
16969;SDS011;8601;48.718;8.992;2024-03-02T02:30:19;11.07;;;9.50;;
16969;SDS011;8601;48.718;8.992;2024-03-02T02:32:47;14.20;;;11.63;;
16969;SDS011;8601;48.718;8.992;2024-03-02T02:35:21;13.63;;;11.40;;
16969;SDS011;8601;48.718;8.992;2024-03-02T02:37:49;14.13;;;11.77;;
16969;SDS011;8601;48.718;8.992;2024-03-02T02:40:18;12.47;;;10.53;;
16969;SDS011;8601;48.718;8.992;2024-03-02T02:42:45;14.17;;;11.47;;
16969;SDS011;8601;48.718;8.992;2024-03-02T02:45:11;13.67;;;10.70;;
16969;SDS011;8601;48.718;8.992;2024-03-02T02:47:39;13.60;;;11.90;;
16969;SDS011;8601;48.718;8.992;2024-03-02T02:50:12;14.63;;;10.97;;
16969;SDS011;8601;48.718;8.992;2024-03-02T02:52:40;14.87;;;11.63;;
16969;SDS011;8601;48.718;8.992;2024-03-02T02:55:09;13.63;;;11.43;;
16969;SDS011;8601;48.718;8.992;2024-03-02T02:57:39;13.47;;;9.63;;
16969;SDS011;8601;48.718;8.992;2024-03-02T03:00:07;13.83;;;11.60;;
16969;SDS011;8601;48.718;8.992;2024-03-02T03:02:39;15.00;;;11.47;;
16969;SDS011;8601;48.718;8.992;2024-03-02T03:05:07;13.83;;;10.83;;
16969;SDS011;8601;48.718;8.992;2024-03-02T03:07:34;14.10;;;11.17;;
16969;SDS011;8601;48.718;8.992;2024-03-02T03:10:01;12.97;;;11.43;;
16969;SDS011;8601;48.718;8.992;2024-03-02T03:12:29;13.73;;;10.77;;
16969;SDS011;8601;48.718;8.992;2024-03-02T03:14:57;13.37;;;11.10;;
16969;SDS011;8601;48.718;8.992;2024-03-02T03:17:25;14.03;;;10.63;;
16969;SDS011;8601;48.718;8.992;2024-03-02T03:19:52;13.80;;;11.30;;
16969;SDS011;8601;48.718;8.992;2024-03-02T03:22:19;15.20;;;11.37;;
16969;SDS011;8601;48.718;8.992;2024-03-02T03:24:47;13.53;;;11.53;;
16969;SDS011;8601;48.718;8.992;2024-03-02T03:27:14;14.80;;;11.67;;
16969;SDS011;8601;48.718;8.992;2024-03-02T03:29:41;15.47;;;11.60;;
16969;SDS011;8601;48.718;8.992;2024-03-02T03:32:09;13.53;;;11.50;;
16969;SDS011;8601;48.718;8.992;2024-03-02T03:34:36;13.83;;;11.50;;
16969;SDS011;8601;48.718;8.992;2024-03-02T03:37:03;13.77;;;10.97;;
16969;SDS011;8601;48.718;8.992;2024-03-02T03:39:33;13.30;;;10.70;;
16969;SDS011;8601;48.718;8.992;2024-03-02T03:42:00;14.70;;;11.23;;
16969;SDS011;8601;48.718;8.992;2024-03-02T03:44:27;13.80;;;11.57;;
16969;SDS011;8601;48.718;8.992;2024-03-02T03:46:54;14.10;;;11.73;;
16969;SDS011;8601;48.718;8.992;2024-03-02T03:49:24;15.73;;;12.30;;
16969;SDS011;8601;48.718;8.992;2024-03-02T03:51:51;14.10;;;11.37;;
16969;SDS011;8601;48.718;8.992;2024-03-02T03:54:19;14.53;;;10.73;;
16969;SDS011;8601;48.718;8.992;2024-03-02T03:56:47;14.10;;;11.40;;
16969;SDS011;8601;48.718;8.992;2024-03-02T03:59:14;15.03;;;11.90;;
16969;SDS011;8601;48.718;8.992;2024-03-02T04:01:40;13.60;;;12.07;;
16969;SDS011;8601;48.718;8.992;2024-03-02T04:04:07;14.87;;;12.07;;
16969;SDS011;8601;48.718;8.992;2024-03-02T04:06:35;16.47;;;11.33;;
16969;SDS011;8601;48.718;8.992;2024-03-02T04:09:02;16.70;;;12.17;;
16969;SDS011;8601;48.718;8.992;2024-03-02T04:11:29;13.97;;;11.27;;
16969;SDS011;8601;48.718;8.992;2024-03-02T04:13:56;13.90;;;12.00;;
16969;SDS011;8601;48.718;8.992;2024-03-02T04:16:23;15.30;;;11.03;;
16969;SDS011;8601;48.718;8.992;2024-03-02T04:18:58;13.93;;;10.77;;
16969;SDS011;8601;48.718;8.992;2024-03-02T04:21:24;14.00;;;11.27;;
16969;SDS011;8601;48.718;8.992;2024-03-02T04:23:53;12.20;;;10.80;;
16969;SDS011;8601;48.718;8.992;2024-03-02T04:26:22;15.83;;;11.40;;
16969;SDS011;8601;48.718;8.992;2024-03-02T04:28:50;13.53;;;11.53;;
16969;SDS011;8601;48.718;8.992;2024-03-02T04:31:17;14.70;;;11.37;;
16969;SDS011;8601;48.718;8.992;2024-03-02T04:33:52;13.97;;;10.90;;
16969;SDS011;8601;48.718;8.992;2024-03-02T04:36:21;14.70;;;10.93;;
16969;SDS011;8601;48.718;8.992;2024-03-02T04:38:48;12.80;;;10.60;;
16969;SDS011;8601;48.718;8.992;2024-03-02T04:41:16;15.53;;;11.27;;
16969;SDS011;8601;48.718;8.992;2024-03-02T04:43:43;15.10;;;11.90;;
16969;SDS011;8601;48.718;8.992;2024-03-02T04:46:16;14.43;;;10.80;;
16969;SDS011;8601;48.718;8.992;2024-03-02T04:48:43;14.93;;;10.83;;
16969;SDS011;8601;48.718;8.992;2024-03-02T04:51:10;12.60;;;10.40;;
16969;SDS011;8601;48.718;8.992;2024-03-02T04:53:37;13.50;;;11.13;;
16969;SDS011;8601;48.718;8.992;2024-03-02T04:56:04;12.83;;;10.23;;
16969;SDS011;8601;48.718;8.992;2024-03-02T04:58:54;12.63;;;9.83;;
16969;SDS011;8601;48.718;8.992;2024-03-02T05:01:21;13.63;;;10.60;;
16969;SDS011;8601;48.718;8.992;2024-03-02T05:03:50;14.07;;;10.57;;
16969;SDS011;8601;48.718;8.992;2024-03-02T05:06:17;13.90;;;10.97;;
16969;SDS011;8601;48.718;8.992;2024-03-02T05:08:43;12.93;;;11.03;;
16969;SDS011;8601;48.718;8.992;2024-03-02T05:11:10;14.40;;;11.60;;
16969;SDS011;8601;48.718;8.992;2024-03-02T05:14:01;14.33;;;11.83;;
16969;SDS011;8601;48.718;8.992;2024-03-02T05:16:28;13.23;;;11.10;;
16969;SDS011;8601;48.718;8.992;2024-03-02T05:18:55;14.77;;;11.20;;
16969;SDS011;8601;48.718;8.992;2024-03-02T05:21:22;13.50;;;10.23;;
16969;SDS011;8601;48.718;8.992;2024-03-02T05:23:49;14.30;;;10.77;;
16969;SDS011;8601;48.718;8.992;2024-03-02T05:26:15;13.83;;;11.00;;
16969;SDS011;8601;48.718;8.992;2024-03-02T05:28:42;13.87;;;10.97;;
16969;SDS011;8601;48.718;8.992;2024-03-02T05:31:11;13.63;;;10.90;;
16969;SDS011;8601;48.718;8.992;2024-03-02T05:33:41;12.93;;;10.13;;
16969;SDS011;8601;48.718;8.992;2024-03-02T05:36:08;12.83;;;10.10;;
16969;SDS011;8601;48.718;8.992;2024-03-02T05:38:35;15.63;;;12.07;;
16969;SDS011;8601;48.718;8.992;2024-03-02T05:41:01;14.90;;;11.10;;
16969;SDS011;8601;48.718;8.992;2024-03-02T05:46:01;14.73;;;11.83;;
16969;SDS011;8601;48.718;8.992;2024-03-02T05:48:29;14.73;;;11.57;;
16969;SDS011;8601;48.718;8.992;2024-03-02T05:50:56;13.13;;;10.83;;
16969;SDS011;8601;48.718;8.992;2024-03-02T05:53:23;15.50;;;11.03;;
16969;SDS011;8601;48.718;8.992;2024-03-02T05:55:52;15.57;;;11.50;;
16969;SDS011;8601;48.718;8.992;2024-03-02T05:58:20;15.77;;;11.27;;
16969;SDS011;8601;48.718;8.992;2024-03-02T06:00:57;17.57;;;13.80;;
16969;SDS011;8601;48.718;8.992;2024-03-02T06:03:24;14.83;;;12.57;;
16969;SDS011;8601;48.718;8.992;2024-03-02T06:05:52;18.70;;;13.53;;
16969;SDS011;8601;48.718;8.992;2024-03-02T06:08:19;16.27;;;13.27;;
16969;SDS011;8601;48.718;8.992;2024-03-02T06:10:46;17.30;;;12.73;;
16969;SDS011;8601;48.718;8.992;2024-03-02T06:13:13;18.63;;;13.40;;
16969;SDS011;8601;48.718;8.992;2024-03-02T06:15:40;19.10;;;13.63;;
16969;SDS011;8601;48.718;8.992;2024-03-02T06:18:06;16.80;;;13.43;;
16969;SDS011;8601;48.718;8.992;2024-03-02T06:20:33;17.50;;;13.60;;
16969;SDS011;8601;48.718;8.992;2024-03-02T06:23:01;18.83;;;13.60;;
16969;SDS011;8601;48.718;8.992;2024-03-02T06:25:29;19.23;;;14.23;;
16969;SDS011;8601;48.718;8.992;2024-03-02T06:27:55;17.30;;;13.00;;
16969;SDS011;8601;48.718;8.992;2024-03-02T06:30:22;18.03;;;12.90;;
16969;SDS011;8601;48.718;8.992;2024-03-02T06:32:49;15.67;;;13.00;;
16969;SDS011;8601;48.718;8.992;2024-03-02T06:35:16;18.43;;;13.63;;
16969;SDS011;8601;48.718;8.992;2024-03-02T06:37:43;15.77;;;12.77;;
16969;SDS011;8601;48.718;8.992;2024-03-02T06:40:11;16.60;;;13.27;;
16969;SDS011;8601;48.718;8.992;2024-03-02T06:42:38;16.70;;;13.40;;
16969;SDS011;8601;48.718;8.992;2024-03-02T06:45:05;17.37;;;13.83;;
16969;SDS011;8601;48.718;8.992;2024-03-02T06:47:32;17.20;;;12.93;;
16969;SDS011;8601;48.718;8.992;2024-03-02T06:49:59;19.43;;;13.73;;
16969;SDS011;8601;48.718;8.992;2024-03-02T06:52:26;20.43;;;13.63;;
16969;SDS011;8601;48.718;8.992;2024-03-02T06:54:53;17.33;;;12.70;;
16969;SDS011;8601;48.718;8.992;2024-03-02T06:57:21;17.93;;;13.23;;
16969;SDS011;8601;48.718;8.992;2024-03-02T06:59:49;20.80;;;14.70;;
16969;SDS011;8601;48.718;8.992;2024-03-02T07:02:19;18.10;;;13.53;;
16969;SDS011;8601;48.718;8.992;2024-03-02T07:04:46;17.10;;;13.23;;
16969;SDS011;8601;48.718;8.992;2024-03-02T07:07:13;18.10;;;14.27;;
16969;SDS011;8601;48.718;8.992;2024-03-02T07:09:39;17.47;;;14.03;;
16969;SDS011;8601;48.718;8.992;2024-03-02T07:12:07;18.23;;;13.90;;
16969;SDS011;8601;48.718;8.992;2024-03-02T07:14:35;21.07;;;14.63;;
16969;SDS011;8601;48.718;8.992;2024-03-02T07:17:36;18.97;;;13.47;;
16969;SDS011;8601;48.718;8.992;2024-03-02T07:20:03;18.03;;;14.37;;
16969;SDS011;8601;48.718;8.992;2024-03-02T07:22:31;16.80;;;12.60;;
16969;SDS011;8601;48.718;8.992;2024-03-02T07:24:58;16.17;;;12.83;;
16969;SDS011;8601;48.718;8.992;2024-03-02T07:27:25;17.47;;;13.47;;
16969;SDS011;8601;48.718;8.992;2024-03-02T07:29:53;19.00;;;14.60;;
16969;SDS011;8601;48.718;8.992;2024-03-02T07:32:20;18.33;;;14.60;;
16969;SDS011;8601;48.718;8.992;2024-03-02T07:34:49;18.03;;;14.23;;
16969;SDS011;8601;48.718;8.992;2024-03-02T07:37:16;18.67;;;14.70;;
16969;SDS011;8601;48.718;8.992;2024-03-02T07:39:44;18.73;;;13.67;;
16969;SDS011;8601;48.718;8.992;2024-03-02T07:42:11;21.33;;;14.87;;
16969;SDS011;8601;48.718;8.992;2024-03-02T07:44:38;19.60;;;14.00;;
16969;SDS011;8601;48.718;8.992;2024-03-02T07:47:06;21.87;;;15.00;;
16969;SDS011;8601;48.718;8.992;2024-03-02T07:49:33;20.33;;;13.73;;
16969;SDS011;8601;48.718;8.992;2024-03-02T07:52:01;17.53;;;13.80;;
16969;SDS011;8601;48.718;8.992;2024-03-02T07:54:28;19.07;;;14.37;;
16969;SDS011;8601;48.718;8.992;2024-03-02T07:56:55;18.43;;;14.30;;
16969;SDS011;8601;48.718;8.992;2024-03-02T07:59:24;17.13;;;13.30;;
16969;SDS011;8601;48.718;8.992;2024-03-02T08:01:50;21.10;;;14.30;;
16969;SDS011;8601;48.718;8.992;2024-03-02T08:04:20;17.80;;;13.97;;
16969;SDS011;8601;48.718;8.992;2024-03-02T08:06:47;17.23;;;13.87;;
16969;SDS011;8601;48.718;8.992;2024-03-02T08:09:14;20.80;;;14.17;;
16969;SDS011;8601;48.718;8.992;2024-03-02T08:11:41;15.33;;;13.10;;
16969;SDS011;8601;48.718;8.992;2024-03-02T08:14:08;18.50;;;14.20;;
16969;SDS011;8601;48.718;8.992;2024-03-02T08:16:34;19.50;;;13.17;;
16969;SDS011;8601;48.718;8.992;2024-03-02T08:19:01;18.37;;;13.20;;
16969;SDS011;8601;48.718;8.992;2024-03-02T08:21:29;17.03;;;13.07;;
16969;SDS011;8601;48.718;8.992;2024-03-02T08:23:57;16.93;;;13.83;;
16969;SDS011;8601;48.718;8.992;2024-03-02T08:26:24;16.23;;;12.73;;
16969;SDS011;8601;48.718;8.992;2024-03-02T08:28:54;14.37;;;11.70;;
16969;SDS011;8601;48.718;8.992;2024-03-02T08:31:20;15.07;;;11.90;;
16969;SDS011;8601;48.718;8.992;2024-03-02T08:33:47;12.70;;;10.47;;
16969;SDS011;8601;48.718;8.992;2024-03-02T08:36:14;11.97;;;9.80;;
16969;SDS011;8601;48.718;8.992;2024-03-02T08:38:42;12.13;;;10.20;;
16969;SDS011;8601;48.718;8.992;2024-03-02T08:41:10;13.30;;;10.60;;
16969;SDS011;8601;48.718;8.992;2024-03-02T08:43:38;11.33;;;9.70;;
16969;SDS011;8601;48.718;8.992;2024-03-02T08:46:08;10.67;;;9.47;;
16969;SDS011;8601;48.718;8.992;2024-03-02T08:48:35;11.03;;;9.23;;
16969;SDS011;8601;48.718;8.992;2024-03-02T08:51:02;13.13;;;10.20;;
16969;SDS011;8601;48.718;8.992;2024-03-02T08:53:31;10.97;;;9.50;;
16969;SDS011;8601;48.718;8.992;2024-03-02T08:55:59;11.00;;;9.87;;
16969;SDS011;8601;48.718;8.992;2024-03-02T08:58:26;12.07;;;10.17;;
16969;SDS011;8601;48.718;8.992;2024-03-02T09:00:53;11.93;;;10.00;;
16969;SDS011;8601;48.718;8.992;2024-03-02T09:03:21;11.80;;;10.07;;
16969;SDS011;8601;48.718;8.992;2024-03-02T09:05:47;11.70;;;9.17;;
16969;SDS011;8601;48.718;8.992;2024-03-02T09:08:14;12.17;;;9.10;;
16969;SDS011;8601;48.718;8.992;2024-03-02T09:10:41;10.90;;;8.90;;
16969;SDS011;8601;48.718;8.992;2024-03-02T09:13:10;23.47;;;16.60;;
16969;SDS011;8601;48.718;8.992;2024-03-02T09:15:37;17.43;;;14.10;;
16969;SDS011;8601;48.718;8.992;2024-03-02T09:18:04;13.33;;;9.67;;
16969;SDS011;8601;48.718;8.992;2024-03-02T09:20:31;9.13;;;8.20;;
16969;SDS011;8601;48.718;8.992;2024-03-02T09:22:59;8.73;;;7.63;;
16969;SDS011;8601;48.718;8.992;2024-03-02T09:25:26;8.67;;;7.03;;
16969;SDS011;8601;48.718;8.992;2024-03-02T09:27:54;9.77;;;8.60;;
16969;SDS011;8601;48.718;8.992;2024-03-02T09:30:23;7.50;;;6.33;;
16969;SDS011;8601;48.718;8.992;2024-03-02T09:32:49;6.80;;;6.07;;
16969;SDS011;8601;48.718;8.992;2024-03-02T09:35:17;6.67;;;5.97;;
16969;SDS011;8601;48.718;8.992;2024-03-02T09:37:44;5.83;;;5.23;;
16969;SDS011;8601;48.718;8.992;2024-03-02T09:40:12;6.60;;;5.20;;
16969;SDS011;8601;48.718;8.992;2024-03-02T09:42:41;4.83;;;4.43;;
16969;SDS011;8601;48.718;8.992;2024-03-02T09:45:09;5.83;;;4.33;;
16969;SDS011;8601;48.718;8.992;2024-03-02T09:47:37;4.47;;;4.07;;
16969;SDS011;8601;48.718;8.992;2024-03-02T09:50:05;4.20;;;3.53;;
16969;SDS011;8601;48.718;8.992;2024-03-02T09:52:32;3.23;;;2.87;;
16969;SDS011;8601;48.718;8.992;2024-03-02T09:55:01;4.10;;;3.50;;
16969;SDS011;8601;48.718;8.992;2024-03-02T09:57:30;2.80;;;2.60;;
16969;SDS011;8601;48.718;8.992;2024-03-02T09:59:57;2.63;;;2.37;;
16969;SDS011;8601;48.718;8.992;2024-03-02T10:02:24;3.17;;;2.93;;
16969;SDS011;8601;48.718;8.992;2024-03-02T10:04:52;3.13;;;2.80;;
16969;SDS011;8601;48.718;8.992;2024-03-02T10:07:19;3.30;;;3.00;;
16969;SDS011;8601;48.718;8.992;2024-03-02T10:09:46;4.37;;;3.37;;
16969;SDS011;8601;48.718;8.992;2024-03-02T10:12:14;3.37;;;3.07;;
16969;SDS011;8601;48.718;8.992;2024-03-02T10:14:42;3.00;;;2.70;;
16969;SDS011;8601;48.718;8.992;2024-03-02T10:17:10;4.30;;;2.80;;
16969;SDS011;8601;48.718;8.992;2024-03-02T10:19:38;3.37;;;2.70;;
16969;SDS011;8601;48.718;8.992;2024-03-02T10:22:07;5.53;;;3.17;;
16969;SDS011;8601;48.718;8.992;2024-03-02T10:24:36;2.67;;;2.40;;
16969;SDS011;8601;48.718;8.992;2024-03-02T10:27:06;3.20;;;2.83;;
16969;SDS011;8601;48.718;8.992;2024-03-02T10:29:36;2.30;;;2.10;;
16969;SDS011;8601;48.718;8.992;2024-03-02T10:32:04;2.60;;;2.30;;
16969;SDS011;8601;48.718;8.992;2024-03-02T10:34:32;2.37;;;2.17;;
16969;SDS011;8601;48.718;8.992;2024-03-02T10:37:03;5.27;;;4.13;;
16969;SDS011;8601;48.718;8.992;2024-03-02T10:40:04;4.50;;;3.67;;
16969;SDS011;8601;48.718;8.992;2024-03-02T10:42:33;2.37;;;2.17;;
16969;SDS011;8601;48.718;8.992;2024-03-02T10:45:01;7.93;;;4.93;;
16969;SDS011;8601;48.718;8.992;2024-03-02T10:47:28;2.63;;;1.80;;
16969;SDS011;8601;48.718;8.992;2024-03-02T10:49:58;4.77;;;3.93;;
16969;SDS011;8601;48.718;8.992;2024-03-02T10:52:27;3.73;;;1.67;;
16969;SDS011;8601;48.718;8.992;2024-03-02T10:54:54;2.23;;;1.50;;
16969;SDS011;8601;48.718;8.992;2024-03-02T10:57:23;1.70;;;1.20;;
16969;SDS011;8601;48.718;8.992;2024-03-02T10:59:56;3.60;;;1.70;;
16969;SDS011;8601;48.718;8.992;2024-03-02T11:02:27;1.87;;;1.33;;
16969;SDS011;8601;48.718;8.992;2024-03-02T11:04:56;1.97;;;1.30;;
16969;SDS011;8601;48.718;8.992;2024-03-02T11:07:26;1.57;;;1.47;;
16969;SDS011;8601;48.718;8.992;2024-03-02T11:09:59;1.27;;;1.10;;
16969;SDS011;8601;48.718;8.992;2024-03-02T11:12:35;1.20;;;1.10;;
16969;SDS011;8601;48.718;8.992;2024-03-02T11:15:07;1.30;;;1.13;;
16969;SDS011;8601;48.718;8.992;2024-03-02T11:17:38;3.90;;;1.00;;
16969;SDS011;8601;48.718;8.992;2024-03-02T11:20:07;5.70;;;1.80;;
16969;SDS011;8601;48.718;8.992;2024-03-02T11:22:36;1.23;;;1.10;;
16969;SDS011;8601;48.718;8.992;2024-03-02T11:25:03;1.53;;;1.40;;
16969;SDS011;8601;48.718;8.992;2024-03-02T11:33:25;1.33;;;1.00;;
16969;SDS011;8601;48.718;8.992;2024-03-02T11:35:54;5.10;;;4.40;;
16969;SDS011;8601;48.718;8.992;2024-03-02T11:38:22;0.90;;;0.90;;
16969;SDS011;8601;48.718;8.992;2024-03-02T11:40:50;2.17;;;1.00;;
16969;SDS011;8601;48.718;8.992;2024-03-02T11:43:19;1.03;;;1.00;;
16969;SDS011;8601;48.718;8.992;2024-03-02T11:45:46;3.53;;;1.00;;
16969;SDS011;8601;48.718;8.992;2024-03-02T11:48:14;5.23;;;1.00;;
16969;SDS011;8601;48.718;8.992;2024-03-02T11:50:42;0.80;;;0.80;;
16969;SDS011;8601;48.718;8.992;2024-03-02T11:53:12;1.10;;;1.10;;
16969;SDS011;8601;48.718;8.992;2024-03-02T11:55:39;2.20;;;1.00;;
16969;SDS011;8601;48.718;8.992;2024-03-02T11:58:06;1.40;;;1.10;;
16969;SDS011;8601;48.718;8.992;2024-03-02T12:00:35;1.10;;;1.00;;
16969;SDS011;8601;48.718;8.992;2024-03-02T12:03:02;1.20;;;1.10;;
16969;SDS011;8601;48.718;8.992;2024-03-02T12:05:32;1.03;;;0.97;;
16969;SDS011;8601;48.718;8.992;2024-03-02T12:08:00;2.97;;;0.90;;
16969;SDS011;8601;48.718;8.992;2024-03-02T12:10:28;2.43;;;1.03;;
16969;SDS011;8601;48.718;8.992;2024-03-02T12:12:56;2.07;;;1.07;;
16969;SDS011;8601;48.718;8.992;2024-03-02T12:15:25;0.80;;;0.80;;
16969;SDS011;8601;48.718;8.992;2024-03-02T12:17:54;0.70;;;0.70;;
16969;SDS011;8601;48.718;8.992;2024-03-02T12:20:22;0.87;;;0.87;;
16969;SDS011;8601;48.718;8.992;2024-03-02T12:22:51;1.10;;;0.77;;
16969;SDS011;8601;48.718;8.992;2024-03-02T12:25:19;1.00;;;0.90;;
16969;SDS011;8601;48.718;8.992;2024-03-02T12:27:46;1.37;;;1.00;;
16969;SDS011;8601;48.718;8.992;2024-03-02T12:30:15;1.10;;;1.00;;
16969;SDS011;8601;48.718;8.992;2024-03-02T12:32:43;1.07;;;0.97;;
16969;SDS011;8601;48.718;8.992;2024-03-02T12:35:12;1.27;;;1.00;;
16969;SDS011;8601;48.718;8.992;2024-03-02T12:37:44;0.80;;;0.80;;
16969;SDS011;8601;48.718;8.992;2024-03-02T12:40:11;3.13;;;2.07;;
16969;SDS011;8601;48.718;8.992;2024-03-02T12:42:39;1.47;;;1.13;;
16969;SDS011;8601;48.718;8.992;2024-03-02T12:45:07;1.67;;;1.20;;
16969;SDS011;8601;48.718;8.992;2024-03-02T12:47:34;1.10;;;1.00;;
16969;SDS011;8601;48.718;8.992;2024-03-02T12:50:02;1.23;;;1.03;;
16969;SDS011;8601;48.718;8.992;2024-03-02T12:52:31;0.90;;;0.90;;
16969;SDS011;8601;48.718;8.992;2024-03-02T12:55:00;1.00;;;0.90;;
16969;SDS011;8601;48.718;8.992;2024-03-02T12:57:28;2.73;;;1.00;;
16969;SDS011;8601;48.718;8.992;2024-03-02T12:59:58;1.00;;;0.90;;
16969;SDS011;8601;48.718;8.992;2024-03-02T13:02:27;0.80;;;0.80;;
16969;SDS011;8601;48.718;8.992;2024-03-02T13:04:55;1.57;;;0.90;;
16969;SDS011;8601;48.718;8.992;2024-03-02T13:07:23;0.80;;;0.80;;
16969;SDS011;8601;48.718;8.992;2024-03-02T13:09:52;1.27;;;1.13;;
16969;SDS011;8601;48.718;8.992;2024-03-02T13:12:22;0.83;;;0.83;;
16969;SDS011;8601;48.718;8.992;2024-03-02T13:14:51;1.73;;;0.93;;
16969;SDS011;8601;48.718;8.992;2024-03-02T13:17:19;3.73;;;3.30;;
16969;SDS011;8601;48.718;8.992;2024-03-02T13:19:53;3.27;;;0.90;;
16969;SDS011;8601;48.718;8.992;2024-03-02T13:22:21;0.70;;;0.70;;
16969;SDS011;8601;48.718;8.992;2024-03-02T13:24:48;1.20;;;0.77;;
16969;SDS011;8601;48.718;8.992;2024-03-02T13:27:17;0.80;;;0.80;;
16969;SDS011;8601;48.718;8.992;2024-03-02T13:29:44;0.73;;;0.73;;
16969;SDS011;8601;48.718;8.992;2024-03-02T13:32:12;0.80;;;0.80;;
16969;SDS011;8601;48.718;8.992;2024-03-02T13:34:39;0.80;;;0.80;;
16969;SDS011;8601;48.718;8.992;2024-03-02T13:37:06;0.90;;;0.90;;
16969;SDS011;8601;48.718;8.992;2024-03-02T13:39:33;1.20;;;0.90;;
16969;SDS011;8601;48.718;8.992;2024-03-02T13:42:05;1.40;;;0.90;;
16969;SDS011;8601;48.718;8.992;2024-03-02T13:44:35;12.10;;;1.93;;
16969;SDS011;8601;48.718;8.992;2024-03-02T13:47:03;2.90;;;0.90;;
16969;SDS011;8601;48.718;8.992;2024-03-02T13:49:31;1.97;;;1.00;;
16969;SDS011;8601;48.718;8.992;2024-03-02T13:52:02;0.90;;;0.90;;
16969;SDS011;8601;48.718;8.992;2024-03-02T13:54:36;1.10;;;1.00;;
16969;SDS011;8601;48.718;8.992;2024-03-02T13:57:04;1.00;;;0.97;;
16969;SDS011;8601;48.718;8.992;2024-03-02T13:59:31;1.00;;;1.00;;
16969;SDS011;8601;48.718;8.992;2024-03-02T14:01:59;1.23;;;1.13;;
16969;SDS011;8601;48.718;8.992;2024-03-02T14:04:29;1.10;;;1.10;;
16969;SDS011;8601;48.718;8.992;2024-03-02T14:06:56;1.10;;;1.00;;
16969;SDS011;8601;48.718;8.992;2024-03-02T14:09:24;1.30;;;1.20;;
16969;SDS011;8601;48.718;8.992;2024-03-02T14:11:52;1.60;;;1.50;;
16969;SDS011;8601;48.718;8.992;2024-03-02T14:14:19;1.10;;;1.00;;
16969;SDS011;8601;48.718;8.992;2024-03-02T14:16:46;1.90;;;1.30;;
16969;SDS011;8601;48.718;8.992;2024-03-02T14:19:14;1.63;;;1.37;;
16969;SDS011;8601;48.718;8.992;2024-03-02T14:21:41;1.60;;;1.20;;
16969;SDS011;8601;48.718;8.992;2024-03-02T14:24:08;1.30;;;1.10;;
16969;SDS011;8601;48.718;8.992;2024-03-02T14:26:35;1.40;;;1.30;;
16969;SDS011;8601;48.718;8.992;2024-03-02T14:29:02;2.03;;;1.40;;
16969;SDS011;8601;48.718;8.992;2024-03-02T14:31:29;1.80;;;1.10;;
16969;SDS011;8601;48.718;8.992;2024-03-02T14:33:57;1.10;;;1.00;;
16969;SDS011;8601;48.718;8.992;2024-03-02T14:36:25;1.40;;;1.17;;
16969;SDS011;8601;48.718;8.992;2024-03-02T14:38:53;1.20;;;1.10;;
16969;SDS011;8601;48.718;8.992;2024-03-02T14:41:20;3.20;;;1.37;;
16969;SDS011;8601;48.718;8.992;2024-03-02T14:43:49;1.10;;;1.10;;
16969;SDS011;8601;48.718;8.992;2024-03-02T14:46:16;1.30;;;1.10;;
16969;SDS011;8601;48.718;8.992;2024-03-02T14:48:43;0.93;;;0.93;;
16969;SDS011;8601;48.718;8.992;2024-03-02T14:51:11;1.27;;;1.17;;
16969;SDS011;8601;48.718;8.992;2024-03-02T14:53:41;1.33;;;1.10;;
16969;SDS011;8601;48.718;8.992;2024-03-02T14:56:07;3.90;;;1.43;;
16969;SDS011;8601;48.718;8.992;2024-03-02T14:58:34;1.90;;;0.97;;
16969;SDS011;8601;48.718;8.992;2024-03-02T15:01:03;1.43;;;1.00;;